sensor_id;sensor_type;location;lat;lon;timestamp;temperature;humidity
21216;DHT22;10765;50.954;5.322;2022-07-23T00:00:14;16.80;1.00
21216;DHT22;10765;50.954;5.322;2022-07-23T00:02:41;16.70;99.90
21216;DHT22;10765;50.954;5.322;2022-07-23T00:05:09;16.60;1.00
21216;DHT22;10765;50.954;5.322;2022-07-23T00:07:36;16.50;1.00
21216;DHT22;10765;50.954;5.322;2022-07-23T00:10:04;16.50;1.00
21216;DHT22;10765;50.954;5.322;2022-07-23T00:12:31;16.50;1.00
21216;DHT22;10765;50.954;5.322;2022-07-23T00:14:57;16.50;1.00
21216;DHT22;10765;50.954;5.322;2022-07-23T00:17:26;16.40;1.00
21216;DHT22;10765;50.954;5.322;2022-07-23T00:19:53;16.40;99.90
21216;DHT22;10765;50.954;5.322;2022-07-23T00:22:20;16.30;99.90
21216;DHT22;10765;50.954;5.322;2022-07-23T00:24:47;16.30;1.00
21216;DHT22;10765;50.954;5.322;2022-07-23T00:27:14;16.20;99.90
21216;DHT22;10765;50.954;5.322;2022-07-23T00:29:40;16.30;1.00
21216;DHT22;10765;50.954;5.322;2022-07-23T00:32:07;16.30;99.90
21216;DHT22;10765;50.954;5.322;2022-07-23T00:34:36;16.30;99.90
21216;DHT22;10765;50.954;5.322;2022-07-23T00:37:02;16.40;99.90
21216;DHT22;10765;50.954;5.322;2022-07-23T00:39:29;16.40;99.90
21216;DHT22;10765;50.954;5.322;2022-07-23T00:41:56;16.40;1.00
21216;DHT22;10765;50.954;5.322;2022-07-23T00:44:24;16.40;1.00
21216;DHT22;10765;50.954;5.322;2022-07-23T00:46:52;16.30;41.20
21216;DHT22;10765;50.954;5.322;2022-07-23T00:49:19;16.40;99.90
21216;DHT22;10765;50.954;5.322;2022-07-23T00:51:48;16.40;99.90
21216;DHT22;10765;50.954;5.322;2022-07-23T00:54:16;16.40;99.90
21216;DHT22;10765;50.954;5.322;2022-07-23T00:56:44;16.30;99.90
21216;DHT22;10765;50.954;5.322;2022-07-23T00:59:11;16.30;99.90
21216;DHT22;10765;50.954;5.322;2022-07-23T01:01:38;16.30;99.90
21216;DHT22;10765;50.954;5.322;2022-07-23T01:04:05;16.30;1.00
21216;DHT22;10765;50.954;5.322;2022-07-23T01:06:35;16.30;1.00
21216;DHT22;10765;50.954;5.322;2022-07-23T01:09:05;16.30;99.90
21216;DHT22;10765;50.954;5.322;2022-07-23T01:11:33;16.20;1.00
21216;DHT22;10765;50.954;5.322;2022-07-23T01:14:08;16.10;1.00
21216;DHT22;10765;50.954;5.322;2022-07-23T01:16:35;16.00;1.00
21216;DHT22;10765;50.954;5.322;2022-07-23T01:19:02;16.00;1.00
21216;DHT22;10765;50.954;5.322;2022-07-23T01:21:32;16.10;1.00
21216;DHT22;10765;50.954;5.322;2022-07-23T01:24:02;16.10;79.20
21216;DHT22;10765;50.954;5.322;2022-07-23T01:26:29;16.10;99.90
21216;DHT22;10765;50.954;5.322;2022-07-23T01:28:56;16.10;1.00
21216;DHT22;10765;50.954;5.322;2022-07-23T01:31:23;16.00;1.00
21216;DHT22;10765;50.954;5.322;2022-07-23T01:33:50;16.00;1.00
21216;DHT22;10765;50.954;5.322;2022-07-23T01:36:17;15.90;99.90
21216;DHT22;10765;50.954;5.322;2022-07-23T01:38:44;15.80;1.00
21216;DHT22;10765;50.954;5.322;2022-07-23T01:41:12;15.70;99.90
21216;DHT22;10765;50.954;5.322;2022-07-23T01:43:39;15.60;1.00
21216;DHT22;10765;50.954;5.322;2022-07-23T01:46:06;15.60;1.00
21216;DHT22;10765;50.954;5.322;2022-07-23T01:48:33;15.60;99.90
21216;DHT22;10765;50.954;5.322;2022-07-23T01:51:00;15.60;99.90
21216;DHT22;10765;50.954;5.322;2022-07-23T01:53:27;15.50;1.00
21216;DHT22;10765;50.954;5.322;2022-07-23T01:55:56;15.40;99.90
21216;DHT22;10765;50.954;5.322;2022-07-23T01:58:25;15.30;99.90
21216;DHT22;10765;50.954;5.322;2022-07-23T02:00:52;15.30;99.90
21216;DHT22;10765;50.954;5.322;2022-07-23T02:03:19;15.30;1.00
21216;DHT22;10765;50.954;5.322;2022-07-23T02:05:46;15.40;1.00
21216;DHT22;10765;50.954;5.322;2022-07-23T02:08:13;15.30;1.00
21216;DHT22;10765;50.954;5.322;2022-07-23T02:10:40;15.30;1.00
21216;DHT22;10765;50.954;5.322;2022-07-23T02:13:07;15.30;1.00
21216;DHT22;10765;50.954;5.322;2022-07-23T02:15:35;15.20;1.00
21216;DHT22;10765;50.954;5.322;2022-07-23T02:18:02;15.20;1.00
21216;DHT22;10765;50.954;5.322;2022-07-23T02:20:29;15.20;1.00
21216;DHT22;10765;50.954;5.322;2022-07-23T02:22:56;15.20;99.90
21216;DHT22;10765;50.954;5.322;2022-07-23T02:25:23;15.20;99.90
21216;DHT22;10765;50.954;5.322;2022-07-23T02:27:49;15.20;1.00
21216;DHT22;10765;50.954;5.322;2022-07-23T02:30:16;15.20;99.90
21216;DHT22;10765;50.954;5.322;2022-07-23T02:32:44;15.20;1.00
21216;DHT22;10765;50.954;5.322;2022-07-23T02:35:11;15.10;1.00
21216;DHT22;10765;50.954;5.322;2022-07-23T02:37:38;15.20;99.90
21216;DHT22;10765;50.954;5.322;2022-07-23T02:40:06;15.10;1.00
21216;DHT22;10765;50.954;5.322;2022-07-23T02:42:33;15.00;1.00
21216;DHT22;10765;50.954;5.322;2022-07-23T02:45:00;15.00;1.00
21216;DHT22;10765;50.954;5.322;2022-07-23T02:47:27;15.00;99.90
21216;DHT22;10765;50.954;5.322;2022-07-23T02:49:55;15.00;99.90
21216;DHT22;10765;50.954;5.322;2022-07-23T02:52:22;15.00;1.00
21216;DHT22;10765;50.954;5.322;2022-07-23T02:54:49;15.00;99.90
21216;DHT22;10765;50.954;5.322;2022-07-23T02:57:15;14.90;1.00
21216;DHT22;10765;50.954;5.322;2022-07-23T02:59:42;14.90;99.90
21216;DHT22;10765;50.954;5.322;2022-07-23T03:02:09;14.80;1.00
21216;DHT22;10765;50.954;5.322;2022-07-23T03:04:36;14.80;1.00
21216;DHT22;10765;50.954;5.322;2022-07-23T03:07:04;14.70;1.00
21216;DHT22;10765;50.954;5.322;2022-07-23T03:09:31;14.70;1.00
21216;DHT22;10765;50.954;5.322;2022-07-23T03:11:58;14.80;1.00
21216;DHT22;10765;50.954;5.322;2022-07-23T03:14:25;14.80;1.00
21216;DHT22;10765;50.954;5.322;2022-07-23T03:16:53;14.70;1.00
21216;DHT22;10765;50.954;5.322;2022-07-23T03:19:20;14.70;1.00
21216;DHT22;10765;50.954;5.322;2022-07-23T03:21:47;14.70;99.90
21216;DHT22;10765;50.954;5.322;2022-07-23T03:24:15;14.70;1.00
21216;DHT22;10765;50.954;5.322;2022-07-23T03:26:43;14.70;99.90
21216;DHT22;10765;50.954;5.322;2022-07-23T03:29:10;14.60;1.00
21216;DHT22;10765;50.954;5.322;2022-07-23T03:31:37;14.60;99.90
21216;DHT22;10765;50.954;5.322;2022-07-23T03:34:04;14.60;1.00
21216;DHT22;10765;50.954;5.322;2022-07-23T03:36:31;14.60;99.90
21216;DHT22;10765;50.954;5.322;2022-07-23T03:38:58;14.60;99.90
21216;DHT22;10765;50.954;5.322;2022-07-23T03:41:26;14.60;1.00
21216;DHT22;10765;50.954;5.322;2022-07-23T03:43:53;14.60;51.20
21216;DHT22;10765;50.954;5.322;2022-07-23T03:46:19;14.60;1.00
21216;DHT22;10765;50.954;5.322;2022-07-23T03:48:46;14.60;1.00
21216;DHT22;10765;50.954;5.322;2022-07-23T03:51:13;14.70;99.90
21216;DHT22;10765;50.954;5.322;2022-07-23T03:53:40;14.60;1.00
21216;DHT22;10765;50.954;5.322;2022-07-23T03:56:07;14.50;99.90
21216;DHT22;10765;50.954;5.322;2022-07-23T03:58:35;14.40;1.00
21216;DHT22;10765;50.954;5.322;2022-07-23T04:01:02;14.40;89.20
21216;DHT22;10765;50.954;5.322;2022-07-23T04:03:29;14.40;99.90
21216;DHT22;10765;50.954;5.322;2022-07-23T04:05:56;14.40;1.00
21216;DHT22;10765;50.954;5.322;2022-07-23T04:08:23;14.30;99.90
21216;DHT22;10765;50.954;5.322;2022-07-23T04:10:50;14.40;99.90
21216;DHT22;10765;50.954;5.322;2022-07-23T04:13:17;14.50;14.10
21216;DHT22;10765;50.954;5.322;2022-07-23T04:15:46;14.60;1.00
21216;DHT22;10765;50.954;5.322;2022-07-23T04:18:13;14.60;99.90
21216;DHT22;10765;50.954;5.322;2022-07-23T04:20:42;14.60;13.10
21216;DHT22;10765;50.954;5.322;2022-07-23T04:23:09;14.80;99.90
21216;DHT22;10765;50.954;5.322;2022-07-23T04:25:36;14.80;1.00
21216;DHT22;10765;50.954;5.322;2022-07-23T04:28:03;14.80;1.00
21216;DHT22;10765;50.954;5.322;2022-07-23T04:30:30;14.90;1.00
21216;DHT22;10765;50.954;5.322;2022-07-23T04:32:59;15.00;1.00
21216;DHT22;10765;50.954;5.322;2022-07-23T04:35:25;15.10;1.00
21216;DHT22;10765;50.954;5.322;2022-07-23T04:37:52;15.20;1.00
21216;DHT22;10765;50.954;5.322;2022-07-23T04:40:19;15.40;1.00
21216;DHT22;10765;50.954;5.322;2022-07-23T04:42:46;15.40;99.90
21216;DHT22;10765;50.954;5.322;2022-07-23T04:45:13;15.60;1.00
21216;DHT22;10765;50.954;5.322;2022-07-23T04:47:40;15.70;99.90
21216;DHT22;10765;50.954;5.322;2022-07-23T04:50:08;15.80;99.90
21216;DHT22;10765;50.954;5.322;2022-07-23T04:52:35;16.10;1.00
21216;DHT22;10765;50.954;5.322;2022-07-23T04:55:03;16.30;1.00
21216;DHT22;10765;50.954;5.322;2022-07-23T04:57:30;16.60;99.90
21216;DHT22;10765;50.954;5.322;2022-07-23T04:59:57;16.60;99.90
21216;DHT22;10765;50.954;5.322;2022-07-23T05:02:24;16.80;1.00
21216;DHT22;10765;50.954;5.322;2022-07-23T05:04:51;16.90;99.90
21216;DHT22;10765;50.954;5.322;2022-07-23T05:07:19;17.20;99.90
21216;DHT22;10765;50.954;5.322;2022-07-23T05:09:46;17.50;1.00
21216;DHT22;10765;50.954;5.322;2022-07-23T05:12:13;17.80;99.90
21216;DHT22;10765;50.954;5.322;2022-07-23T05:14:40;17.90;1.00
21216;DHT22;10765;50.954;5.322;2022-07-23T05:17:07;17.90;1.00
21216;DHT22;10765;50.954;5.322;2022-07-23T05:19:35;18.00;1.00
21216;DHT22;10765;50.954;5.322;2022-07-23T05:22:02;17.80;1.00
21216;DHT22;10765;50.954;5.322;2022-07-23T05:24:30;17.80;18.40
21216;DHT22;10765;50.954;5.322;2022-07-23T05:26:57;18.10;1.00
21216;DHT22;10765;50.954;5.322;2022-07-23T05:29:24;18.50;99.90
21216;DHT22;10765;50.954;5.322;2022-07-23T05:31:51;18.70;99.90
21216;DHT22;10765;50.954;5.322;2022-07-23T05:34:17;19.10;99.90
21216;DHT22;10765;50.954;5.322;2022-07-23T05:36:44;19.50;33.90
21216;DHT22;10765;50.954;5.322;2022-07-23T05:39:11;19.70;1.00
21216;DHT22;10765;50.954;5.322;2022-07-23T05:41:39;19.70;1.00
21216;DHT22;10765;50.954;5.322;2022-07-23T05:44:06;19.80;1.00
21216;DHT22;10765;50.954;5.322;2022-07-23T05:46:33;20.00;1.00
21216;DHT22;10765;50.954;5.322;2022-07-23T05:49:00;20.50;1.00
21216;DHT22;10765;50.954;5.322;2022-07-23T05:51:27;21.00;1.00
21216;DHT22;10765;50.954;5.322;2022-07-23T05:53:54;21.40;1.00
21216;DHT22;10765;50.954;5.322;2022-07-23T05:56:21;21.60;1.00
21216;DHT22;10765;50.954;5.322;2022-07-23T05:58:49;21.90;1.00
21216;DHT22;10765;50.954;5.322;2022-07-23T06:01:16;22.30;99.90
21216;DHT22;10765;50.954;5.322;2022-07-23T06:03:43;22.20;1.00
21216;DHT22;10765;50.954;5.322;2022-07-23T06:06:09;22.60;1.00
21216;DHT22;10765;50.954;5.322;2022-07-23T06:08:36;23.50;99.90
21216;DHT22;10765;50.954;5.322;2022-07-23T06:11:03;23.80;99.90
21216;DHT22;10765;50.954;5.322;2022-07-23T06:13:30;24.10;99.90
21216;DHT22;10765;50.954;5.322;2022-07-23T06:15:58;24.40;99.90
21216;DHT22;10765;50.954;5.322;2022-07-23T06:18:25;24.60;99.90
21216;DHT22;10765;50.954;5.322;2022-07-23T06:20:52;24.90;99.90
21216;DHT22;10765;50.954;5.322;2022-07-23T06:23:20;25.10;99.90
21216;DHT22;10765;50.954;5.322;2022-07-23T06:25:47;25.30;99.90
21216;DHT22;10765;50.954;5.322;2022-07-23T06:28:13;25.60;99.90
21216;DHT22;10765;50.954;5.322;2022-07-23T06:30:41;25.30;99.90
21216;DHT22;10765;50.954;5.322;2022-07-23T06:33:09;25.30;99.90
21216;DHT22;10765;50.954;5.322;2022-07-23T06:35:37;25.40;99.90
21216;DHT22;10765;50.954;5.322;2022-07-23T06:38:04;25.50;99.90
21216;DHT22;10765;50.954;5.322;2022-07-23T06:40:30;26.20;99.90
21216;DHT22;10765;50.954;5.322;2022-07-23T06:42:57;26.60;99.90
21216;DHT22;10765;50.954;5.322;2022-07-23T06:45:25;26.70;99.90
21216;DHT22;10765;50.954;5.322;2022-07-23T06:47:51;26.60;99.90
21216;DHT22;10765;50.954;5.322;2022-07-23T06:50:20;26.40;99.90
21216;DHT22;10765;50.954;5.322;2022-07-23T06:52:47;26.40;99.90
21216;DHT22;10765;50.954;5.322;2022-07-23T06:55:14;26.90;99.90
21216;DHT22;10765;50.954;5.322;2022-07-23T06:57:41;27.50;99.90
21216;DHT22;10765;50.954;5.322;2022-07-23T07:00:09;28.20;99.90
21216;DHT22;10765;50.954;5.322;2022-07-23T07:02:36;29.00;99.90
21216;DHT22;10765;50.954;5.322;2022-07-23T07:05:03;28.60;99.90
21216;DHT22;10765;50.954;5.322;2022-07-23T07:07:31;28.60;99.90
21216;DHT22;10765;50.954;5.322;2022-07-23T07:09:58;29.10;99.90
21216;DHT22;10765;50.954;5.322;2022-07-23T07:12:25;29.70;99.90
21216;DHT22;10765;50.954;5.322;2022-07-23T07:14:52;29.90;99.90
21216;DHT22;10765;50.954;5.322;2022-07-23T07:17:19;29.80;99.90
21216;DHT22;10765;50.954;5.322;2022-07-23T07:19:46;30.10;99.90
21216;DHT22;10765;50.954;5.322;2022-07-23T07:22:13;30.20;99.90
21216;DHT22;10765;50.954;5.322;2022-07-23T07:24:41;29.90;99.90
21216;DHT22;10765;50.954;5.322;2022-07-23T07:27:08;30.30;99.90
21216;DHT22;10765;50.954;5.322;2022-07-23T07:29:35;29.80;99.90
21216;DHT22;10765;50.954;5.322;2022-07-23T07:32:01;30.40;99.90
21216;DHT22;10765;50.954;5.322;2022-07-23T07:34:28;30.10;99.90
21216;DHT22;10765;50.954;5.322;2022-07-23T07:36:55;30.10;99.90
21216;DHT22;10765;50.954;5.322;2022-07-23T07:39:22;30.10;99.90
21216;DHT22;10765;50.954;5.322;2022-07-23T07:41:50;30.10;99.90
21216;DHT22;10765;50.954;5.322;2022-07-23T07:44:17;30.60;99.90
21216;DHT22;10765;50.954;5.322;2022-07-23T07:46:44;30.80;99.90
21216;DHT22;10765;50.954;5.322;2022-07-23T07:49:11;31.60;99.90
21216;DHT22;10765;50.954;5.322;2022-07-23T07:51:38;31.30;99.90
21216;DHT22;10765;50.954;5.322;2022-07-23T07:54:05;31.80;99.90
21216;DHT22;10765;50.954;5.322;2022-07-23T07:56:31;31.60;99.90
21216;DHT22;10765;50.954;5.322;2022-07-23T07:59:00;31.60;99.90
21216;DHT22;10765;50.954;5.322;2022-07-23T08:01:27;31.50;99.90
21216;DHT22;10765;50.954;5.322;2022-07-23T08:03:54;31.90;99.90
21216;DHT22;10765;50.954;5.322;2022-07-23T08:06:20;31.40;99.90
21216;DHT22;10765;50.954;5.322;2022-07-23T08:08:47;31.60;99.90
21216;DHT22;10765;50.954;5.322;2022-07-23T08:11:14;31.70;99.90
21216;DHT22;10765;50.954;5.322;2022-07-23T08:13:41;32.10;99.90
21216;DHT22;10765;50.954;5.322;2022-07-23T08:16:11;33.20;99.90
21216;DHT22;10765;50.954;5.322;2022-07-23T08:18:38;33.10;99.90
21216;DHT22;10765;50.954;5.322;2022-07-23T08:21:05;34.00;99.90
21216;DHT22;10765;50.954;5.322;2022-07-23T08:23:32;34.00;99.90
21216;DHT22;10765;50.954;5.322;2022-07-23T08:26:00;34.50;99.90
21216;DHT22;10765;50.954;5.322;2022-07-23T08:28:27;33.70;99.90
21216;DHT22;10765;50.954;5.322;2022-07-23T08:30:54;33.20;99.90
21216;DHT22;10765;50.954;5.322;2022-07-23T08:33:23;32.20;99.90
21216;DHT22;10765;50.954;5.322;2022-07-23T08:35:50;32.20;99.90
21216;DHT22;10765;50.954;5.322;2022-07-23T08:38:19;32.30;99.90
21216;DHT22;10765;50.954;5.322;2022-07-23T08:40:48;33.10;99.90
21216;DHT22;10765;50.954;5.322;2022-07-23T08:43:18;34.10;99.90
21216;DHT22;10765;50.954;5.322;2022-07-23T08:45:47;33.80;99.90
21216;DHT22;10765;50.954;5.322;2022-07-23T08:48:17;34.10;99.90
21216;DHT22;10765;50.954;5.322;2022-07-23T08:50:48;34.30;99.90
21216;DHT22;10765;50.954;5.322;2022-07-23T08:53:16;33.90;99.90
21216;DHT22;10765;50.954;5.322;2022-07-23T08:55:44;34.80;99.90
21216;DHT22;10765;50.954;5.322;2022-07-23T08:58:12;35.00;99.90
21216;DHT22;10765;50.954;5.322;2022-07-23T09:00:39;34.50;99.90
21216;DHT22;10765;50.954;5.322;2022-07-23T09:03:06;34.50;99.90
21216;DHT22;10765;50.954;5.322;2022-07-23T09:05:33;35.10;99.90
21216;DHT22;10765;50.954;5.322;2022-07-23T09:08:10;34.40;99.90
21216;DHT22;10765;50.954;5.322;2022-07-23T09:10:45;35.10;99.90
21216;DHT22;10765;50.954;5.322;2022-07-23T09:13:27;34.80;99.90
21216;DHT22;10765;50.954;5.322;2022-07-23T09:15:56;35.30;99.90
21216;DHT22;10765;50.954;5.322;2022-07-23T09:18:35;35.00;99.90
21216;DHT22;10765;50.954;5.322;2022-07-23T09:21:16;34.80;99.90
21216;DHT22;10765;50.954;5.322;2022-07-23T09:23:46;35.60;99.90
21216;DHT22;10765;50.954;5.322;2022-07-23T09:26:32;36.30;99.90
21216;DHT22;10765;50.954;5.322;2022-07-23T09:29:02;36.50;99.90
21216;DHT22;10765;50.954;5.322;2022-07-23T09:31:34;37.20;99.90
21216;DHT22;10765;50.954;5.322;2022-07-23T09:34:10;36.80;99.90
21216;DHT22;10765;50.954;5.322;2022-07-23T09:36:38;36.80;99.90
21216;DHT22;10765;50.954;5.322;2022-07-23T09:39:06;37.20;99.90
21216;DHT22;10765;50.954;5.322;2022-07-23T09:41:39;37.70;99.90
21216;DHT22;10765;50.954;5.322;2022-07-23T09:44:12;38.90;99.90
21216;DHT22;10765;50.954;5.322;2022-07-23T09:46:39;38.90;99.90
21216;DHT22;10765;50.954;5.322;2022-07-23T09:49:11;38.00;99.90
21216;DHT22;10765;50.954;5.322;2022-07-23T09:51:45;38.40;99.90
21216;DHT22;10765;50.954;5.322;2022-07-23T09:54:23;38.10;99.90
21216;DHT22;10765;50.954;5.322;2022-07-23T09:56:52;37.00;99.90
21216;DHT22;10765;50.954;5.322;2022-07-23T09:59:23;37.20;99.90
21216;DHT22;10765;50.954;5.322;2022-07-23T10:01:51;38.20;99.90
21216;DHT22;10765;50.954;5.322;2022-07-23T10:04:19;37.90;99.90
21216;DHT22;10765;50.954;5.322;2022-07-23T10:06:48;38.30;99.90
21216;DHT22;10765;50.954;5.322;2022-07-23T10:09:24;38.10;99.90
21216;DHT22;10765;50.954;5.322;2022-07-23T10:11:55;37.70;99.90
21216;DHT22;10765;50.954;5.322;2022-07-23T10:14:27;38.10;99.90
21216;DHT22;10765;50.954;5.322;2022-07-23T10:16:57;39.10;99.90
21216;DHT22;10765;50.954;5.322;2022-07-23T10:19:25;38.60;99.90
21216;DHT22;10765;50.954;5.322;2022-07-23T10:21:56;39.40;99.90
21216;DHT22;10765;50.954;5.322;2022-07-23T10:24:35;37.90;99.90
21216;DHT22;10765;50.954;5.322;2022-07-23T10:27:19;38.20;99.90
21216;DHT22;10765;50.954;5.322;2022-07-23T10:29:52;39.70;99.90
21216;DHT22;10765;50.954;5.322;2022-07-23T10:32:29;39.30;99.90
21216;DHT22;10765;50.954;5.322;2022-07-23T10:35:08;40.10;99.90
21216;DHT22;10765;50.954;5.322;2022-07-23T10:37:39;40.50;99.90
21216;DHT22;10765;50.954;5.322;2022-07-23T10:40:11;40.20;99.90
21216;DHT22;10765;50.954;5.322;2022-07-23T10:42:38;40.80;99.90
21216;DHT22;10765;50.954;5.322;2022-07-23T10:45:21;40.80;99.90
21216;DHT22;10765;50.954;5.322;2022-07-23T10:47:49;41.70;99.90
21216;DHT22;10765;50.954;5.322;2022-07-23T10:50:22;40.70;99.90
21216;DHT22;10765;50.954;5.322;2022-07-23T10:53:16;40.10;99.90
21216;DHT22;10765;50.954;5.322;2022-07-23T10:55:47;39.40;99.90
21216;DHT22;10765;50.954;5.322;2022-07-23T10:58:19;39.50;99.90
21216;DHT22;10765;50.954;5.322;2022-07-23T11:00:46;40.20;99.90
21216;DHT22;10765;50.954;5.322;2022-07-23T11:03:34;39.70;99.90
21216;DHT22;10765;50.954;5.322;2022-07-23T11:06:04;39.50;99.90
21216;DHT22;10765;50.954;5.322;2022-07-23T11:08:31;39.90;99.90
21216;DHT22;10765;50.954;5.322;2022-07-23T11:11:10;39.90;99.90
21216;DHT22;10765;50.954;5.322;2022-07-23T11:13:44;39.50;99.90
21216;DHT22;10765;50.954;5.322;2022-07-23T11:16:16;39.30;99.90
21216;DHT22;10765;50.954;5.322;2022-07-23T11:19:06;40.00;99.90
21216;DHT22;10765;50.954;5.322;2022-07-23T11:21:45;40.00;99.90
21216;DHT22;10765;50.954;5.322;2022-07-23T11:24:13;40.70;99.90
21216;DHT22;10765;50.954;5.322;2022-07-23T11:26:47;41.70;99.90
21216;DHT22;10765;50.954;5.322;2022-07-23T11:29:41;41.30;99.90
21216;DHT22;10765;50.954;5.322;2022-07-23T11:32:17;41.40;99.90
21216;DHT22;10765;50.954;5.322;2022-07-23T11:34:46;42.00;99.90
21216;DHT22;10765;50.954;5.322;2022-07-23T11:37:28;42.60;99.90
21216;DHT22;10765;50.954;5.322;2022-07-23T11:39:56;43.50;99.90
21216;DHT22;10765;50.954;5.322;2022-07-23T11:42:24;44.00;99.90
21216;DHT22;10765;50.954;5.322;2022-07-23T11:44:51;43.80;99.90
21216;DHT22;10765;50.954;5.322;2022-07-23T11:47:22;43.60;99.90
21216;DHT22;10765;50.954;5.322;2022-07-23T11:49:52;43.50;99.90
21216;DHT22;10765;50.954;5.322;2022-07-23T11:52:20;43.30;99.90
21216;DHT22;10765;50.954;5.322;2022-07-23T11:54:49;43.50;99.90
21216;DHT22;10765;50.954;5.322;2022-07-23T11:57:17;43.80;99.90
21216;DHT22;10765;50.954;5.322;2022-07-23T11:59:46;42.60;99.90
21216;DHT22;10765;50.954;5.322;2022-07-23T12:02:13;41.10;99.90
21216;DHT22;10765;50.954;5.322;2022-07-23T12:04:41;40.20;99.90
21216;DHT22;10765;50.954;5.322;2022-07-23T12:07:31;40.20;99.90
21216;DHT22;10765;50.954;5.322;2022-07-23T12:10:01;40.70;99.90
21216;DHT22;10765;50.954;5.322;2022-07-23T12:12:35;40.20;99.90
21216;DHT22;10765;50.954;5.322;2022-07-23T12:15:05;41.90;99.90
21216;DHT22;10765;50.954;5.322;2022-07-23T12:17:34;42.30;99.90
21216;DHT22;10765;50.954;5.322;2022-07-23T12:20:03;42.60;99.90
21216;DHT22;10765;50.954;5.322;2022-07-23T12:22:35;42.70;99.90
21216;DHT22;10765;50.954;5.322;2022-07-23T12:25:04;42.30;99.90
21216;DHT22;10765;50.954;5.322;2022-07-23T12:27:32;41.40;99.90
21216;DHT22;10765;50.954;5.322;2022-07-23T12:30:28;41.00;99.90
21216;DHT22;10765;50.954;5.322;2022-07-23T12:32:57;41.60;99.90
21216;DHT22;10765;50.954;5.322;2022-07-23T12:35:31;41.50;99.90
21216;DHT22;10765;50.954;5.322;2022-07-23T12:38:00;42.60;99.90
21216;DHT22;10765;50.954;5.322;2022-07-23T12:40:30;42.50;99.90
21216;DHT22;10765;50.954;5.322;2022-07-23T12:42:59;41.20;99.90
21216;DHT22;10765;50.954;5.322;2022-07-23T12:45:42;39.50;99.90
21216;DHT22;10765;50.954;5.322;2022-07-23T12:48:16;40.50;99.90
21216;DHT22;10765;50.954;5.322;2022-07-23T12:50:50;40.80;99.90
21216;DHT22;10765;50.954;5.322;2022-07-23T12:53:19;42.90;99.90
21216;DHT22;10765;50.954;5.322;2022-07-23T12:55:48;42.20;99.90
21216;DHT22;10765;50.954;5.322;2022-07-23T12:58:16;42.40;99.90
21216;DHT22;10765;50.954;5.322;2022-07-23T13:00:53;42.20;99.90
21216;DHT22;10765;50.954;5.322;2022-07-23T13:03:22;40.90;99.90
21216;DHT22;10765;50.954;5.322;2022-07-23T13:05:49;42.00;99.90
21216;DHT22;10765;50.954;5.322;2022-07-23T13:08:16;43.30;99.90
21216;DHT22;10765;50.954;5.322;2022-07-23T13:10:43;42.90;99.90
21216;DHT22;10765;50.954;5.322;2022-07-23T13:13:12;42.70;99.90
21216;DHT22;10765;50.954;5.322;2022-07-23T13:15:39;41.70;99.90
21216;DHT22;10765;50.954;5.322;2022-07-23T13:18:07;42.30;99.90
21216;DHT22;10765;50.954;5.322;2022-07-23T13:20:34;42.30;99.90
21216;DHT22;10765;50.954;5.322;2022-07-23T13:23:02;41.70;99.90
21216;DHT22;10765;50.954;5.322;2022-07-23T13:25:28;42.50;99.90
21216;DHT22;10765;50.954;5.322;2022-07-23T13:27:55;43.00;99.90
21216;DHT22;10765;50.954;5.322;2022-07-23T13:30:22;41.50;99.90
21216;DHT22;10765;50.954;5.322;2022-07-23T13:32:49;40.70;99.90
21216;DHT22;10765;50.954;5.322;2022-07-23T13:35:17;40.30;99.90
21216;DHT22;10765;50.954;5.322;2022-07-23T13:37:44;39.50;99.90
21216;DHT22;10765;50.954;5.322;2022-07-23T13:40:11;38.20;99.90
21216;DHT22;10765;50.954;5.322;2022-07-23T13:42:38;39.60;99.90
21216;DHT22;10765;50.954;5.322;2022-07-23T13:45:07;40.70;99.90
21216;DHT22;10765;50.954;5.322;2022-07-23T13:47:34;38.30;99.90
21216;DHT22;10765;50.954;5.322;2022-07-23T13:50:01;34.70;99.90
21216;DHT22;10765;50.954;5.322;2022-07-23T13:52:29;32.80;99.90
21216;DHT22;10765;50.954;5.322;2022-07-23T13:54:58;32.10;1.00
21216;DHT22;10765;50.954;5.322;2022-07-23T13:57:25;31.70;1.00
21216;DHT22;10765;50.954;5.322;2022-07-23T13:59:52;31.80;1.00
21216;DHT22;10765;50.954;5.322;2022-07-23T14:02:19;31.30;1.00
21216;DHT22;10765;50.954;5.322;2022-07-23T14:04:46;31.20;1.00
21216;DHT22;10765;50.954;5.322;2022-07-23T14:07:13;31.30;1.00
21216;DHT22;10765;50.954;5.322;2022-07-23T14:09:41;31.20;1.00
21216;DHT22;10765;50.954;5.322;2022-07-23T14:12:09;31.00;1.00
21216;DHT22;10765;50.954;5.322;2022-07-23T14:14:36;31.10;1.00
21216;DHT22;10765;50.954;5.322;2022-07-23T14:17:05;31.30;1.00
21216;DHT22;10765;50.954;5.322;2022-07-23T14:19:32;31.00;1.00
21216;DHT22;10765;50.954;5.322;2022-07-23T14:21:59;31.20;1.00
21216;DHT22;10765;50.954;5.322;2022-07-23T14:24:26;31.10;1.00
21216;DHT22;10765;50.954;5.322;2022-07-23T14:26:54;31.50;1.00
21216;DHT22;10765;50.954;5.322;2022-07-23T14:29:21;31.30;1.00
21216;DHT22;10765;50.954;5.322;2022-07-23T14:31:48;31.30;1.00
21216;DHT22;10765;50.954;5.322;2022-07-23T14:34:15;31.50;1.00
21216;DHT22;10765;50.954;5.322;2022-07-23T14:36:43;31.30;1.00
21216;DHT22;10765;50.954;5.322;2022-07-23T14:39:10;31.20;1.00
21216;DHT22;10765;50.954;5.322;2022-07-23T14:41:37;31.00;1.00
21216;DHT22;10765;50.954;5.322;2022-07-23T14:44:06;30.80;1.00
21216;DHT22;10765;50.954;5.322;2022-07-23T14:46:33;30.70;1.00
21216;DHT22;10765;50.954;5.322;2022-07-23T14:49:00;30.90;1.00
21216;DHT22;10765;50.954;5.322;2022-07-23T14:51:27;30.70;1.00
21216;DHT22;10765;50.954;5.322;2022-07-23T14:53:53;30.40;1.00
21216;DHT22;10765;50.954;5.322;2022-07-23T14:56:21;30.30;1.00
21216;DHT22;10765;50.954;5.322;2022-07-23T14:58:48;30.00;1.00
21216;DHT22;10765;50.954;5.322;2022-07-23T15:01:16;30.10;1.00
21216;DHT22;10765;50.954;5.322;2022-07-23T15:03:43;29.80;1.00
21216;DHT22;10765;50.954;5.322;2022-07-23T15:06:10;29.50;1.00
21216;DHT22;10765;50.954;5.322;2022-07-23T15:08:37;29.40;1.00
21216;DHT22;10765;50.954;5.322;2022-07-23T15:11:04;29.50;1.00
21216;DHT22;10765;50.954;5.322;2022-07-23T15:13:30;29.40;1.00
21216;DHT22;10765;50.954;5.322;2022-07-23T15:15:57;29.60;1.00
21216;DHT22;10765;50.954;5.322;2022-07-23T15:18:26;29.90;1.00
21216;DHT22;10765;50.954;5.322;2022-07-23T15:20:53;29.80;1.00
21216;DHT22;10765;50.954;5.322;2022-07-23T15:23:20;29.30;1.00
21216;DHT22;10765;50.954;5.322;2022-07-23T15:25:46;29.60;1.00
21216;DHT22;10765;50.954;5.322;2022-07-23T15:28:13;29.40;1.00
21216;DHT22;10765;50.954;5.322;2022-07-23T15:30:41;29.10;1.00
21216;DHT22;10765;50.954;5.322;2022-07-23T15:33:08;29.10;1.00
21216;DHT22;10765;50.954;5.322;2022-07-23T15:35:36;29.10;1.00
21216;DHT22;10765;50.954;5.322;2022-07-23T15:38:03;29.00;1.00
21216;DHT22;10765;50.954;5.322;2022-07-23T15:40:30;29.10;1.00
21216;DHT22;10765;50.954;5.322;2022-07-23T15:42:56;29.30;1.00